ilmateenistus.ee keskkonnaagentuur.ee
EETN Таллинн
FTEO31 EETN 091700
TAF EETN 091700Z 0918/1018 18012KT 9999 SCT040 TEMPO 0920/1001 5000
    RA BKN020 TEMPO 0923/1004 19016G26KT PROB40 TEMPO 1003/1008 4000 SHRA
    SCT020CB=

METAR EETN 092150Z 15008KT 9999 -RA OVC049 08/04 Q1014 NOSIG=
Таллинн
EEKA Кярдла
METAR EEKA 092150Z NIL=
Кярдла
EEKE Курессааре
METAR EEKE 092150Z AUTO 16012KT 9999NDV FEW049 08/05 Q1013=
Курессааре
EEPU Пярну
METAR EEPU 092150Z NIL=
Пярну
EETU Тарту
METAR EETU 092150Z AUTO 16006KT 9999 FEW092/// 09/02 Q1018=
Тарту
EEEI Эмари
METAR EEEI 092150Z AUTO 15011KT 120V180 9999 -RA OVC050/// 08/05 Q1014=
Эмари